DAL314 UIII-UIBB
Flight info
| Callsign | DAL314 |
|---|---|
| Flight time | 0h 49m |
| Altitude | 12000 |
| Route | BOGRA A815 GIMED |
| Aircraft | B738/M-VGDW/C |
Departure
| Time | 2026-05-09 12:15 |
|---|---|
| Airport | Irkutsk International Airport (UIII) |
Arrival
| Time | 2026-05-09 13:04 |
|---|---|
| Airport | Bratsk Airport (UIBB) |
| Time | Latitude | Longitude | Altitude | Speed | Heading |
|---|---|---|---|---|---|
| 2026-05-09 11:44 | 52.27132 | 104.36055 | 1602 ft | 0 kts | 356° |
| 2026-05-09 11:54 | 52.27149 | 104.36053 | 1601 ft | 6 kts | 356° |
| 2026-05-09 11:54 | 52.27175 | 104.36050 | 1600 ft | 0 kts | 356° |
| 2026-05-09 12:00 | 52.27183 | 104.36060 | 1599 ft | 2 kts | 64° |
| 2026-05-09 12:00 | 52.27184 | 104.36075 | 1599 ft | 1 kts | 87° |
| 2026-05-09 12:00 | 52.27184 | 104.36076 | 1599 ft | 0 kts | 87° |
| 2026-05-09 12:03 | 52.27185 | 104.36105 | 1599 ft | 4 kts | 88° |
| 2026-05-09 12:04 | 52.27186 | 104.36177 | 1599 ft | 8 kts | 88° |
| 2026-05-09 12:04 | 52.27181 | 104.36286 | 1599 ft | 10 kts | 103° |
| 2026-05-09 12:04 | 52.27158 | 104.36386 | 1601 ft | 8 kts | 111° |
| 2026-05-09 12:04 | 52.27139 | 104.36465 | 1602 ft | 6 kts | 110° |
| 2026-05-09 12:05 | 52.27128 | 104.36515 | 1603 ft | 4 kts | 110° |
| 2026-05-09 12:05 | 52.27116 | 104.36567 | 1604 ft | 7 kts | 110° |
| 2026-05-09 12:05 | 52.27097 | 104.36657 | 1605 ft | 9 kts | 109° |
| 2026-05-09 12:05 | 52.27075 | 104.36758 | 1607 ft | 10 kts | 109° |
| 2026-05-09 12:06 | 52.27043 | 104.36905 | 1610 ft | 16 kts | 111° |
| 2026-05-09 12:06 | 52.27005 | 104.37065 | 1611 ft | 13 kts | 110° |
| 2026-05-09 12:06 | 52.26998 | 104.37223 | 1610 ft | 14 kts | 82° |
| 2026-05-09 12:06 | 52.26978 | 104.37367 | 1611 ft | 12 kts | 112° |
| 2026-05-09 12:07 | 52.26944 | 104.37495 | 1613 ft | 12 kts | 114° |
| 2026-05-09 12:07 | 52.26910 | 104.37620 | 1615 ft | 12 kts | 113° |
| 2026-05-09 12:07 | 52.26876 | 104.37749 | 1617 ft | 12 kts | 113° |
| 2026-05-09 12:07 | 52.26842 | 104.37876 | 1619 ft | 12 kts | 113° |
| 2026-05-09 12:08 | 52.26807 | 104.38004 | 1621 ft | 12 kts | 114° |
| 2026-05-09 12:08 | 52.26772 | 104.38130 | 1624 ft | 11 kts | 113° |
| 2026-05-09 12:08 | 52.26739 | 104.38254 | 1628 ft | 13 kts | 113° |
| 2026-05-09 12:08 | 52.26696 | 104.38424 | 1631 ft | 18 kts | 112° |
| 2026-05-09 12:09 | 52.26643 | 104.38632 | 1636 ft | 20 kts | 114° |
| 2026-05-09 12:09 | 52.26581 | 104.38863 | 1639 ft | 22 kts | 114° |
| 2026-05-09 12:09 | 52.26526 | 104.39071 | 1645 ft | 0 kts | 112° |
| 2026-05-09 12:10 | 52.26508 | 104.39144 | 1648 ft | 11 kts | 112° |
| 2026-05-09 12:10 | 52.26465 | 104.39314 | 1650 ft | 21 kts | 111° |
| 2026-05-09 12:10 | 52.26400 | 104.39593 | 1652 ft | 30 kts | 108° |
| 2026-05-09 12:11 | 52.26307 | 104.39893 | 1650 ft | 30 kts | 116° |
| 2026-05-09 12:11 | 52.26217 | 104.40231 | 1647 ft | 32 kts | 112° |
| 2026-05-09 12:11 | 52.26129 | 104.40563 | 1652 ft | 31 kts | 113° |
| 2026-05-09 12:11 | 52.26042 | 104.40890 | 1659 ft | 31 kts | 114° |
| 2026-05-09 12:12 | 52.25999 | 104.41128 | 1666 ft | 13 kts | 73° |
| 2026-05-09 12:12 | 52.26060 | 104.41207 | 1667 ft | 13 kts | 25° |
| 2026-05-09 12:12 | 52.26103 | 104.41239 | 1667 ft | 0 kts | 23° |
| 2026-05-09 12:12 | 52.26104 | 104.41239 | 1667 ft | 0 kts | 24° |
| 2026-05-09 12:13 | 52.26105 | 104.41240 | 1667 ft | 0 kts | 24° |
| 2026-05-09 12:13 | 52.26112 | 104.41245 | 1667 ft | 2 kts | 24° |
| 2026-05-09 12:13 | 52.26138 | 104.41264 | 1667 ft | 5 kts | 24° |
| 2026-05-09 12:13 | 52.26181 | 104.41286 | 1666 ft | 7 kts | 5° |
| 2026-05-09 12:14 | 52.26237 | 104.41242 | 1664 ft | 11 kts | 298° |
| 2026-05-09 12:14 | 52.26242 | 104.41229 | 1664 ft | 0 kts | 296° |
| 2026-05-09 12:14 | 52.26242 | 104.41228 | 1664 ft | 0 kts | 296° |
| 2026-05-09 12:14 | 52.26288 | 104.41059 | 1662 ft | 42 kts | 293° |
| 2026-05-09 12:15 | 52.26474 | 104.40371 | 1649 ft | 90 kts | 294° |
| 2026-05-09 12:15 | 52.26857 | 104.38975 | 1832 ft | 166 kts | 296° |
| 2026-05-09 12:15 | 52.27406 | 104.37266 | 2865 ft | 182 kts | 302° |
| 2026-05-09 12:15 | 52.28088 | 104.35567 | 4083 ft | 191 kts | 307° |
| 2026-05-09 12:16 | 52.28927 | 104.33678 | 4754 ft | 213 kts | 307° |
| 2026-05-09 12:16 | 52.29795 | 104.31737 | 5229 ft | 218 kts | 308° |
| 2026-05-09 12:16 | 52.30844 | 104.29999 | 5572 ft | 216 kts | 332° |
| 2026-05-09 12:16 | 52.32309 | 104.29603 | 5954 ft | 219 kts | 7° |
| 2026-05-09 12:17 | 52.33781 | 104.30178 | 6320 ft | 222 kts | 11° |
| 2026-05-09 12:17 | 52.35298 | 104.30753 | 6691 ft | 221 kts | 8° |
| 2026-05-09 12:17 | 52.36826 | 104.30926 | 6936 ft | 224 kts | 353° |
| 2026-05-09 12:17 | 52.38347 | 104.30461 | 6944 ft | 220 kts | 342° |
| 2026-05-09 12:18 | 52.39792 | 104.29713 | 6946 ft | 219 kts | 339° |
| 2026-05-09 12:18 | 52.41211 | 104.28873 | 7127 ft | 214 kts | 338° |
| 2026-05-09 12:18 | 52.42655 | 104.27953 | 7518 ft | 233 kts | 337° |
| 2026-05-09 12:18 | 52.44220 | 104.26929 | 7882 ft | 254 kts | 336° |
| 2026-05-09 12:19 | 52.45917 | 104.25798 | 8252 ft | 274 kts | 336° |
| 2026-05-09 12:19 | 52.47689 | 104.24606 | 8620 ft | 277 kts | 336° |
| 2026-05-09 12:19 | 52.49497 | 104.23386 | 8981 ft | 289 kts | 336° |
| 2026-05-09 12:19 | 52.51413 | 104.22092 | 9362 ft | 305 kts | 336° |
| 2026-05-09 12:20 | 52.53431 | 104.20734 | 9758 ft | 318 kts | 335° |
| 2026-05-09 12:20 | 52.55486 | 104.19351 | 10137 ft | 329 kts | 335° |
| 2026-05-09 12:20 | 52.57657 | 104.17878 | 10516 ft | 339 kts | 335° |
| 2026-05-09 12:20 | 52.59864 | 104.16374 | 10890 ft | 347 kts | 335° |
| 2026-05-09 12:21 | 52.62080 | 104.14863 | 11256 ft | 353 kts | 336° |
| 2026-05-09 12:21 | 52.64366 | 104.13304 | 11633 ft | 354 kts | 335° |
| 2026-05-09 12:21 | 52.66631 | 104.11762 | 12004 ft | 355 kts | 336° |
| 2026-05-09 12:21 | 52.68938 | 104.10190 | 12383 ft | 355 kts | 336° |
| 2026-05-09 12:22 | 52.71193 | 104.08651 | 12750 ft | 357 kts | 336° |
| 2026-05-09 12:22 | 52.73521 | 104.07059 | 13126 ft | 360 kts | 336° |
| 2026-05-09 12:22 | 52.75833 | 104.05474 | 13504 ft | 361 kts | 336° |
| 2026-05-09 12:22 | 52.78136 | 104.03901 | 13877 ft | 363 kts | 336° |
| 2026-05-09 12:23 | 52.80468 | 104.02304 | 14250 ft | 365 kts | 336° |
| 2026-05-09 12:23 | 52.82813 | 104.00693 | 14627 ft | 367 kts | 336° |
| 2026-05-09 12:23 | 52.85173 | 103.99071 | 15000 ft | 369 kts | 336° |
| 2026-05-09 12:23 | 52.87548 | 103.97441 | 15384 ft | 371 kts | 336° |
| 2026-05-09 12:24 | 52.89936 | 103.95798 | 15756 ft | 372 kts | 336° |
| 2026-05-09 12:24 | 52.92314 | 103.94157 | 16128 ft | 373 kts | 336° |
| 2026-05-09 12:24 | 52.94713 | 103.92498 | 16513 ft | 373 kts | 336° |
| 2026-05-09 12:24 | 52.97094 | 103.90852 | 16886 ft | 374 kts | 336° |
| 2026-05-09 12:25 | 52.99483 | 103.89196 | 17263 ft | 374 kts | 336° |
| 2026-05-09 12:25 | 53.01889 | 103.87524 | 17637 ft | 374 kts | 336° |
| 2026-05-09 12:25 | 53.04304 | 103.85846 | 18011 ft | 374 kts | 336° |
| 2026-05-09 12:25 | 53.06686 | 103.84190 | 18397 ft | 374 kts | 336° |
| 2026-05-09 12:26 | 53.09073 | 103.82531 | 18784 ft | 373 kts | 336° |
| 2026-05-09 12:26 | 53.11459 | 103.80868 | 19167 ft | 372 kts | 336° |
| 2026-05-09 12:26 | 53.13864 | 103.79192 | 19564 ft | 371 kts | 336° |
| 2026-05-09 12:26 | 53.16228 | 103.77500 | 19908 ft | 371 kts | 335° |
| 2026-05-09 12:27 | 53.18567 | 103.75667 | 19965 ft | 379 kts | 334° |
| 2026-05-09 12:27 | 53.20990 | 103.73753 | 19956 ft | 387 kts | 334° |
| 2026-05-09 12:27 | 53.23434 | 103.71845 | 19958 ft | 393 kts | 334° |
| 2026-05-09 12:27 | 53.25934 | 103.69894 | 19955 ft | 395 kts | 334° |
| 2026-05-09 12:28 | 53.28416 | 103.67951 | 19949 ft | 394 kts | 334° |
| 2026-05-09 12:28 | 53.30902 | 103.65997 | 19951 ft | 394 kts | 334° |
| 2026-05-09 12:28 | 53.33348 | 103.64071 | 19952 ft | 394 kts | 334° |
| 2026-05-09 12:28 | 53.35829 | 103.62118 | 19952 ft | 394 kts | 334° |
| 2026-05-09 12:29 | 53.38312 | 103.60165 | 19990 ft | 392 kts | 334° |
| 2026-05-09 12:29 | 53.40766 | 103.58241 | 20057 ft | 393 kts | 334° |
| 2026-05-09 12:29 | 53.43254 | 103.56271 | 20126 ft | 394 kts | 334° |
| 2026-05-09 12:29 | 53.45737 | 103.54304 | 20193 ft | 394 kts | 334° |
| 2026-05-09 12:30 | 53.48212 | 103.52349 | 20261 ft | 394 kts | 334° |
| 2026-05-09 12:30 | 53.50678 | 103.50395 | 20322 ft | 394 kts | 334° |
| 2026-05-09 12:30 | 53.55621 | 103.46478 | 20459 ft | 394 kts | 334° |
| 2026-05-09 12:31 | 53.58127 | 103.44501 | 20523 ft | 395 kts | 334° |
| 2026-05-09 12:31 | 53.63083 | 103.40569 | 20654 ft | 395 kts | 334° |
| 2026-05-09 12:31 | 53.65553 | 103.38606 | 20717 ft | 395 kts | 334° |
| 2026-05-09 12:32 | 53.68027 | 103.36636 | 20781 ft | 396 kts | 334° |
| 2026-05-09 12:32 | 53.70519 | 103.34649 | 20846 ft | 396 kts | 333° |
| 2026-05-09 12:32 | 53.73010 | 103.32661 | 20911 ft | 396 kts | 333° |
| 2026-05-09 12:32 | 53.75504 | 103.30672 | 20984 ft | 396 kts | 333° |
| 2026-05-09 12:33 | 53.77980 | 103.28692 | 21051 ft | 396 kts | 333° |
| 2026-05-09 12:33 | 53.80470 | 103.26697 | 21117 ft | 397 kts | 333° |
| 2026-05-09 12:33 | 53.82959 | 103.24703 | 21188 ft | 396 kts | 333° |
| 2026-05-09 12:33 | 53.85450 | 103.22707 | 21253 ft | 396 kts | 333° |
| 2026-05-09 12:34 | 53.87928 | 103.20715 | 21321 ft | 396 kts | 333° |
| 2026-05-09 12:34 | 53.90403 | 103.18720 | 21386 ft | 397 kts | 333° |
| 2026-05-09 12:34 | 53.92892 | 103.16709 | 21456 ft | 399 kts | 333° |
| 2026-05-09 12:34 | 53.95417 | 103.14671 | 21522 ft | 399 kts | 333° |
| 2026-05-09 12:35 | 53.97932 | 103.12641 | 21492 ft | 401 kts | 332° |
| 2026-05-09 12:35 | 54.00412 | 103.10638 | 21258 ft | 399 kts | 333° |
| 2026-05-09 12:35 | 54.02910 | 103.08615 | 20992 ft | 395 kts | 332° |
| 2026-05-09 12:35 | 54.05380 | 103.06612 | 20727 ft | 394 kts | 332° |
| 2026-05-09 12:36 | 54.07834 | 103.04620 | 20473 ft | 393 kts | 332° |
| 2026-05-09 12:36 | 54.10303 | 103.02615 | 20209 ft | 391 kts | 332° |
| 2026-05-09 12:36 | 54.12774 | 103.00602 | 19976 ft | 389 kts | 332° |
| 2026-05-09 12:36 | 54.15190 | 102.98623 | 19938 ft | 386 kts | 332° |
| 2026-05-09 12:37 | 54.17624 | 102.96627 | 19949 ft | 389 kts | 332° |
| 2026-05-09 12:37 | 54.20045 | 102.94661 | 19944 ft | 390 kts | 332° |
| 2026-05-09 12:37 | 54.22507 | 102.92662 | 19946 ft | 390 kts | 332° |
| 2026-05-09 12:37 | 54.24937 | 102.90667 | 19952 ft | 389 kts | 332° |
| 2026-05-09 12:38 | 54.27378 | 102.88663 | 19942 ft | 389 kts | 332° |
| 2026-05-09 12:38 | 54.29807 | 102.86660 | 19936 ft | 389 kts | 332° |
| 2026-05-09 12:38 | 54.32250 | 102.84624 | 19938 ft | 390 kts | 332° |
| 2026-05-09 12:38 | 54.34670 | 102.82607 | 19947 ft | 389 kts | 332° |
| 2026-05-09 12:39 | 54.37100 | 102.80599 | 19945 ft | 388 kts | 332° |
| 2026-05-09 12:39 | 54.39528 | 102.78585 | 19940 ft | 389 kts | 332° |
| 2026-05-09 12:39 | 54.41959 | 102.76566 | 19944 ft | 389 kts | 332° |
| 2026-05-09 12:39 | 54.44366 | 102.74567 | 19947 ft | 389 kts | 332° |
| 2026-05-09 12:40 | 54.46810 | 102.72533 | 19947 ft | 388 kts | 332° |
| 2026-05-09 12:40 | 54.49236 | 102.70521 | 19947 ft | 388 kts | 332° |
| 2026-05-09 12:40 | 54.51653 | 102.68521 | 19938 ft | 388 kts | 332° |
| 2026-05-09 12:40 | 54.54058 | 102.66519 | 19942 ft | 388 kts | 332° |
| 2026-05-09 12:41 | 54.56496 | 102.64477 | 19936 ft | 388 kts | 332° |
| 2026-05-09 12:41 | 54.58903 | 102.62463 | 19945 ft | 387 kts | 332° |
| 2026-05-09 12:41 | 54.61335 | 102.60429 | 19946 ft | 388 kts | 332° |
| 2026-05-09 12:41 | 54.63750 | 102.58406 | 19947 ft | 388 kts | 331° |
| 2026-05-09 12:42 | 54.66167 | 102.56380 | 19946 ft | 387 kts | 331° |
| 2026-05-09 12:42 | 54.68582 | 102.54346 | 19948 ft | 387 kts | 331° |
| 2026-05-09 12:42 | 54.71021 | 102.52293 | 19952 ft | 387 kts | 331° |
| 2026-05-09 12:42 | 54.73398 | 102.50289 | 19949 ft | 387 kts | 331° |
| 2026-05-09 12:43 | 54.75835 | 102.48236 | 19949 ft | 388 kts | 331° |
| 2026-05-09 12:43 | 54.78248 | 102.46193 | 19954 ft | 387 kts | 331° |
| 2026-05-09 12:43 | 54.80651 | 102.44167 | 19953 ft | 387 kts | 331° |
| 2026-05-09 12:43 | 54.83080 | 102.42118 | 19948 ft | 386 kts | 331° |
| 2026-05-09 12:44 | 54.85498 | 102.40063 | 19946 ft | 386 kts | 331° |
| 2026-05-09 12:44 | 54.87899 | 102.38021 | 19946 ft | 387 kts | 331° |
| 2026-05-09 12:44 | 54.90285 | 102.35987 | 19949 ft | 386 kts | 331° |
| 2026-05-09 12:44 | 54.92706 | 102.33926 | 19953 ft | 385 kts | 330° |
| 2026-05-09 12:45 | 54.95097 | 102.31892 | 19951 ft | 383 kts | 330° |
| 2026-05-09 12:45 | 54.97474 | 102.29871 | 19949 ft | 384 kts | 330° |
| 2026-05-09 12:45 | 54.99890 | 102.27807 | 19949 ft | 384 kts | 330° |
| 2026-05-09 12:45 | 55.02269 | 102.25761 | 19948 ft | 384 kts | 330° |
| 2026-05-09 12:46 | 55.04678 | 102.23703 | 19951 ft | 385 kts | 330° |
| 2026-05-09 12:46 | 55.07075 | 102.21647 | 19948 ft | 384 kts | 330° |
| 2026-05-09 12:46 | 55.09470 | 102.19580 | 19948 ft | 385 kts | 330° |
| 2026-05-09 12:46 | 55.11868 | 102.17516 | 19949 ft | 384 kts | 330° |
| 2026-05-09 12:47 | 55.14264 | 102.15448 | 19947 ft | 384 kts | 330° |
| 2026-05-09 12:47 | 55.16645 | 102.13393 | 19950 ft | 385 kts | 330° |
| 2026-05-09 12:47 | 55.19035 | 102.11329 | 19953 ft | 384 kts | 330° |
| 2026-05-09 12:47 | 55.21420 | 102.09269 | 19953 ft | 385 kts | 330° |
| 2026-05-09 12:48 | 55.23813 | 102.07189 | 19954 ft | 384 kts | 330° |
| 2026-05-09 12:48 | 55.26190 | 102.05126 | 19954 ft | 383 kts | 330° |
| 2026-05-09 12:48 | 55.28592 | 102.03037 | 19955 ft | 384 kts | 330° |
| 2026-05-09 12:48 | 55.30971 | 102.00970 | 19955 ft | 385 kts | 330° |
| 2026-05-09 12:49 | 55.33365 | 101.98882 | 19955 ft | 383 kts | 330° |
| 2026-05-09 12:49 | 55.35744 | 101.96809 | 19957 ft | 383 kts | 330° |
| 2026-05-09 12:49 | 55.38131 | 101.94731 | 19957 ft | 384 kts | 330° |
| 2026-05-09 12:49 | 55.40540 | 101.92677 | 19958 ft | 385 kts | 332° |
| 2026-05-09 12:50 | 55.43025 | 101.90984 | 19955 ft | 388 kts | 340° |
| 2026-05-09 12:50 | 55.45723 | 101.90254 | 19955 ft | 397 kts | 353° |
| 2026-05-09 12:50 | 55.48478 | 101.90395 | 19961 ft | 401 kts | 357° |
| 2026-05-09 12:50 | 55.51259 | 101.90620 | 19960 ft | 400 kts | 356° |
| 2026-05-09 12:51 | 55.54046 | 101.90793 | 19957 ft | 399 kts | 356° |
| 2026-05-09 12:51 | 55.56827 | 101.90961 | 19957 ft | 398 kts | 356° |
| 2026-05-09 12:51 | 55.59556 | 101.91133 | 19959 ft | 398 kts | 356° |
| 2026-05-09 12:51 | 55.62315 | 101.91305 | 19961 ft | 399 kts | 356° |
| 2026-05-09 12:52 | 55.65110 | 101.91478 | 19961 ft | 398 kts | 356° |
| 2026-05-09 12:52 | 55.67876 | 101.91653 | 19960 ft | 398 kts | 356° |
| 2026-05-09 12:52 | 55.70647 | 101.91829 | 19958 ft | 399 kts | 356° |
| 2026-05-09 12:52 | 55.73385 | 101.91994 | 19959 ft | 398 kts | 356° |
| 2026-05-09 12:53 | 55.76182 | 101.92171 | 19963 ft | 399 kts | 356° |
| 2026-05-09 12:53 | 55.78936 | 101.92351 | 19959 ft | 398 kts | 356° |
| 2026-05-09 12:53 | 55.81710 | 101.92526 | 19959 ft | 398 kts | 356° |
| 2026-05-09 12:53 | 55.84480 | 101.92696 | 19961 ft | 398 kts | 356° |
| 2026-05-09 12:54 | 55.87242 | 101.92877 | 19740 ft | 401 kts | 356° |
| 2026-05-09 12:54 | 55.89989 | 101.93057 | 19221 ft | 390 kts | 356° |
| 2026-05-09 12:54 | 55.92664 | 101.93236 | 18688 ft | 376 kts | 356° |
| 2026-05-09 12:54 | 55.95216 | 101.93397 | 18061 ft | 367 kts | 355° |
| 2026-05-09 12:55 | 55.97753 | 101.93553 | 17438 ft | 359 kts | 355° |
| 2026-05-09 12:55 | 56.00200 | 101.93713 | 16795 ft | 343 kts | 355° |
| 2026-05-09 12:55 | 56.02496 | 101.93862 | 16178 ft | 327 kts | 355° |
| 2026-05-09 12:55 | 56.04718 | 101.93999 | 15561 ft | 314 kts | 354° |
| 2026-05-09 12:56 | 56.06873 | 101.94130 | 14935 ft | 304 kts | 354° |
| 2026-05-09 12:56 | 56.08955 | 101.94260 | 14304 ft | 295 kts | 354° |
| 2026-05-09 12:56 | 56.10968 | 101.94385 | 13677 ft | 289 kts | 354° |
| 2026-05-09 12:56 | 56.12938 | 101.94499 | 13065 ft | 283 kts | 354° |
| 2026-05-09 12:57 | 56.14890 | 101.94613 | 12439 ft | 278 kts | 354° |
| 2026-05-09 12:57 | 56.16808 | 101.94730 | 11815 ft | 275 kts | 354° |
| 2026-05-09 12:57 | 56.18688 | 101.94869 | 11194 ft | 272 kts | 357° |
| 2026-05-09 12:57 | 56.20561 | 101.95469 | 10447 ft | 278 kts | 8° |
| 2026-05-09 12:58 | 56.22368 | 101.96706 | 9757 ft | 282 kts | 18° |
| 2026-05-09 12:58 | 56.24057 | 101.98480 | 9071 ft | 285 kts | 28° |
| 2026-05-09 12:58 | 56.25588 | 102.00684 | 8378 ft | 276 kts | 37° |
| 2026-05-09 12:58 | 56.26854 | 102.03020 | 7632 ft | 252 kts | 39° |
| 2026-05-09 12:59 | 56.28239 | 102.04541 | 6862 ft | 223 kts | 6° |
| 2026-05-09 12:59 | 56.29627 | 102.04196 | 6141 ft | 198 kts | 325° |
| 2026-05-09 12:59 | 56.30422 | 102.02361 | 5392 ft | 187 kts | 291° |
| 2026-05-09 12:59 | 56.30778 | 102.00147 | 4628 ft | 186 kts | 285° |
| 2026-05-09 13:00 | 56.31077 | 101.97926 | 3889 ft | 184 kts | 284° |
| 2026-05-09 13:00 | 56.31227 | 101.95670 | 3181 ft | 183 kts | 272° |
| 2026-05-09 13:00 | 56.31271 | 101.93559 | 3000 ft | 153 kts | 282° |
| 2026-05-09 13:00 | 56.31504 | 101.91908 | 3038 ft | 129 kts | 293° |
| 2026-05-09 13:01 | 56.31836 | 101.90372 | 3077 ft | 133 kts | 296° |
| 2026-05-09 13:01 | 56.32198 | 101.88830 | 3054 ft | 132 kts | 296° |
| 2026-05-09 13:01 | 56.32568 | 101.87302 | 3057 ft | 132 kts | 297° |
| 2026-05-09 13:01 | 56.32942 | 101.85792 | 3068 ft | 132 kts | 298° |
| 2026-05-09 13:02 | 56.33327 | 101.84290 | 3061 ft | 132 kts | 298° |
| 2026-05-09 13:02 | 56.33717 | 101.82794 | 3036 ft | 134 kts | 298° |
| 2026-05-09 13:02 | 56.34098 | 101.81252 | 2781 ft | 133 kts | 297° |
| 2026-05-09 13:02 | 56.34506 | 101.79767 | 2521 ft | 132 kts | 299° |
| 2026-05-09 13:03 | 56.34915 | 101.78294 | 2368 ft | 130 kts | 297° |
| 2026-05-09 13:03 | 56.35302 | 101.76837 | 2327 ft | 132 kts | 296° |
| 2026-05-09 13:03 | 56.35682 | 101.75330 | 2138 ft | 131 kts | 294° |
| 2026-05-09 13:03 | 56.36044 | 101.73813 | 1831 ft | 131 kts | 296° |
| 2026-05-09 13:04 | 56.36415 | 101.72338 | 1672 ft | 129 kts | 295° |
| 2026-05-09 13:04 | 56.36791 | 101.70907 | 1599 ft | 120 kts | 296° |
| 2026-05-09 13:04 | 56.37106 | 101.69685 | 1597 ft | 82 kts | 295° |
| 2026-05-09 13:04 | 56.37280 | 101.69012 | 1599 ft | 40 kts | 295° |
| 2026-05-09 13:05 | 56.37373 | 101.68648 | 1600 ft | 32 kts | 296° |
| 2026-05-09 13:05 | 56.37487 | 101.68215 | 1602 ft | 44 kts | 292° |
| 2026-05-09 13:05 | 56.37605 | 101.67713 | 1602 ft | 24 kts | 282° |
| 2026-05-09 13:05 | 56.37538 | 101.67539 | 1601 ft | 17 kts | 206° |
| 2026-05-09 13:06 | 56.37411 | 101.67461 | 1603 ft | 22 kts | 184° |
| 2026-05-09 13:06 | 56.37283 | 101.67491 | 1605 ft | 21 kts | 127° |
| 2026-05-09 13:07 | 56.36955 | 101.68053 | 1601 ft | 12 kts | 274° |
| 2026-05-09 13:07 | 56.36990 | 101.68048 | 1601 ft | 6 kts | 52° |
| 2026-05-09 13:07 | 56.37026 | 101.68130 | 1599 ft | 9 kts | 52° |
| 2026-05-09 13:08 | 56.37112 | 101.68185 | 1598 ft | 20 kts | 311° |
| 2026-05-09 13:08 | 56.37169 | 101.67907 | 1603 ft | 24 kts | 295° |
| 2026-05-09 13:08 | 56.37259 | 101.67685 | 1605 ft | 20 kts | 300° |
| 2026-05-09 13:08 | 56.37263 | 101.67551 | 1605 ft | 0 kts | 200° |
| 2026-05-09 13:16 | 56.37302 | 101.67558 | 1605 ft | 8 kts | 128° |
| 2026-05-09 13:16 | 56.37246 | 101.67737 | 1605 ft | 18 kts | 117° |
| 2026-05-09 13:16 | 56.37188 | 101.67953 | 1603 ft | 20 kts | 115° |
| 2026-05-09 13:16 | 56.37121 | 101.68205 | 1598 ft | 24 kts | 116° |
| 2026-05-09 13:17 | 56.37044 | 101.68491 | 1593 ft | 26 kts | 116° |
| 2026-05-09 13:17 | 56.36964 | 101.68789 | 1586 ft | 18 kts | 116° |
| 2026-05-09 13:17 | 56.36995 | 101.68937 | 1585 ft | 11 kts | 29° |
| 2026-05-09 13:17 | 56.37067 | 101.68998 | 1588 ft | 11 kts | 25° |
| 2026-05-09 13:18 | 56.37145 | 101.69061 | 1592 ft | 13 kts | 26° |
| 2026-05-09 13:18 | 56.37213 | 101.69199 | 1597 ft | 19 kts | 98° |
| 2026-05-09 13:18 | 56.37161 | 101.69459 | 1598 ft | 24 kts | 114° |
| 2026-05-09 13:18 | 56.37075 | 101.69812 | 1597 ft | 36 kts | 116° |
| 2026-05-09 13:19 | 56.36952 | 101.70285 | 1598 ft | 43 kts | 112° |
| 2026-05-09 13:19 | 56.36838 | 101.70610 | 1595 ft | 19 kts | 170° |
| 2026-05-09 13:19 | 56.36721 | 101.70542 | 1592 ft | 17 kts | 205° |
| 2026-05-09 13:19 | 56.36684 | 101.70510 | 1590 ft | 0 kts | 206° |
| 2026-05-09 13:20 | 56.36683 | 101.70509 | 1590 ft | 1 kts | 207° |
| 2026-05-09 13:20 | 56.36641 | 101.70461 | 1588 ft | 11 kts | 200° |
| 2026-05-09 13:20 | 56.36555 | 101.70449 | 1585 ft | 14 kts | 134° |
| 2026-05-09 13:21 | 56.36565 | 101.70580 | 1587 ft | 11 kts | 43° |
| 2026-05-09 13:21 | 56.36581 | 101.70693 | 1589 ft | 9 kts | 106° |
| 2026-05-09 13:21 | 56.36533 | 101.70806 | 1590 ft | 14 kts | 169° |
| 2026-05-09 13:21 | 56.36491 | 101.70785 | 1588 ft | 0 kts | 202° |